Time,TemperatureF,DewpointF,PressureIn,WindDirection,WindDirectionDegrees,WindSpeedMPH,WindSpeedGustMPH,Humidity,HourlyPrecipIn,Conditions,Clouds,dailyrainin,SolarRadiationWatts/m^2,SoftwareType,DateUTC
2014-08-21 00:22:00,74.0,70.0,-100.00,ESE,109,9.0,14.0,87,0.00,,,0.00,0.000000,,2014-08-21 05:22:00,
2014-08-21 01:22:00,74.0,71.0,-100.00,ESE,115,13.0,19.0,89,0.00,,,0.00,0.000000,,2014-08-21 06:22:00,
2014-08-21 01:42:00,74.0,71.0,-100.00,ESE,115,13.0,19.0,89,0.00,,,0.00,0.000000,,2014-08-21 06:42:00,
2014-08-21 01:51:00,74.0,70.0,-100.00,East,82,7.0,26.0,87,0.01,,,0.01,0.000000,,2014-08-21 06:51:00,
2014-08-21 02:22:00,74.0,70.0,-100.00,East,82,7.0,26.0,87,0.01,,,0.01,0.000000,,2014-08-21 07:22:00,
2014-08-21 02:32:00,74.0,70.0,-100.00,East,82,7.0,26.0,87,0.01,,,0.01,0.000000,,2014-08-21 07:32:00,
2014-08-21 02:43:00,74.0,70.0,-100.00,East,82,7.0,26.0,87,0.01,,,0.01,0.000000,,2014-08-21 07:43:00,
2014-08-21 02:51:00,70.0,69.0,-100.00,East,82,11.0,17.0,98,0.87,,,0.88,0.000000,,2014-08-21 07:51:00,
2014-08-21 03:23:00,70.0,69.0,-100.00,East,82,11.0,17.0,98,0.87,,,0.88,0.000000,,2014-08-21 08:23:00,
2014-08-21 03:32:00,70.0,69.0,-100.00,East,82,11.0,17.0,98,0.87,,,0.88,0.000000,,2014-08-21 08:32:00,
2014-08-21 03:42:00,70.0,69.0,-100.00,East,82,11.0,17.0,98,0.87,,,0.88,0.000000,,2014-08-21 08:42:00,
2014-08-21 03:51:00,71.0,69.0,-100.00,WNW,287,10.0,24.0,95,0.46,,,1.34,0.000000,,2014-08-21 08:51:00,
2014-08-21 04:22:00,71.0,69.0,-100.00,WNW,287,10.0,24.0,95,0.46,,,1.34,0.000000,,2014-08-21 09:22:00,
2014-08-21 04:34:00,71.0,69.0,-100.00,WNW,287,10.0,24.0,95,0.46,,,1.34,0.000000,,2014-08-21 09:34:00,
2014-08-21 04:44:00,71.0,69.0,-100.00,WNW,287,10.0,24.0,95,0.46,,,1.34,0.000000,,2014-08-21 09:44:00,
2014-08-21 04:51:00,70.0,68.0,-100.00,ESE,105,11.0,17.0,95,0.27,,,1.61,0.000000,,2014-08-21 09:51:00,
2014-08-21 05:24:00,70.0,68.0,-100.00,ESE,105,11.0,17.0,95,0.27,,,1.61,0.000000,,2014-08-21 10:24:00,
2014-08-21 05:33:00,70.0,68.0,-100.00,ESE,105,11.0,17.0,95,0.27,,,1.61,0.000000,,2014-08-21 10:33:00,
2014-08-21 05:43:00,70.0,68.0,-100.00,ESE,105,11.0,17.0,95,0.27,,,1.61,0.000000,,2014-08-21 10:43:00,
2014-08-21 05:51:00,68.0,67.0,-100.00,East,98,10.0,20.0,95,0.00,,,1.61,0.000000,,2014-08-21 10:51:00,
2014-08-21 06:43:00,68.0,67.0,-100.00,East,98,10.0,20.0,95,0.00,,,1.61,0.000000,,2014-08-21 11:43:00,
2014-08-21 06:51:00,69.0,68.0,-100.00,SE,134,5.0,14.0,95,0.00,,,1.61,1.000000,,2014-08-21 11:51:00,
2014-08-21 07:32:00,69.0,68.0,-100.00,SE,134,5.0,14.0,95,0.00,,,1.61,1.000000,,2014-08-21 12:32:00,
2014-08-21 07:51:00,71.0,69.0,-100.00,SE,145,6.0,11.0,93,0.00,,,1.61,49.000000,,2014-08-21 12:51:00,
2014-08-21 08:32:00,71.0,69.0,-100.00,SE,145,6.0,11.0,93,0.00,,,1.61,49.000000,,2014-08-21 13:32:00,
2014-08-21 08:42:00,71.0,69.0,-100.00,SE,145,6.0,11.0,93,0.00,,,1.61,49.000000,,2014-08-21 13:42:00,
2014-08-21 08:51:00,74.0,69.0,-100.00,SE,133,6.0,9.0,85,0.00,,,1.61,175.000000,,2014-08-21 13:51:00,
2014-08-21 09:42:00,74.0,69.0,-100.00,SE,133,6.0,9.0,85,0.00,,,1.61,175.000000,,2014-08-21 14:42:00,
2014-08-21 09:51:00,74.0,70.0,-100.00,SSE,151,7.0,10.0,86,0.00,,,1.61,210.000000,,2014-08-21 14:51:00,
2014-08-21 10:34:00,74.0,70.0,-100.00,SSE,151,7.0,10.0,86,0.00,,,1.61,210.000000,,2014-08-21 15:34:00,
2014-08-21 10:49:00,74.0,70.0,-100.00,SSE,151,7.0,10.0,86,0.00,,,1.61,210.000000,,2014-08-21 15:49:00,
2014-08-21 11:24:00,77.0,70.0,-100.00,South,171,7.0,10.0,80,0.00,,,1.61,298.000000,,2014-08-21 16:24:00,
2014-08-21 12:23:00,82.0,73.0,-100.00,SW,229,3.0,9.0,74,0.00,,,1.61,544.000000,,2014-08-21 17:23:00,
2014-08-21 12:34:00,82.0,73.0,-100.00,SW,229,3.0,9.0,74,0.00,,,1.61,544.000000,,2014-08-21 17:34:00,
2014-08-21 12:51:00,82.0,73.0,-100.00,NNW,342,5.0,11.0,75,0.00,,,1.61,602.000000,,2014-08-21 17:51:00,
2014-08-21 13:23:00,82.0,73.0,-100.00,NNW,342,5.0,11.0,75,0.00,,,1.61,602.000000,,2014-08-21 18:23:00,
2014-08-21 13:32:00,82.0,73.0,-100.00,NNW,342,5.0,11.0,75,0.00,,,1.61,602.000000,,2014-08-21 18:32:00,
2014-08-21 13:43:00,82.0,73.0,-100.00,NNW,342,5.0,11.0,75,0.00,,,1.61,602.000000,,2014-08-21 18:43:00,
2014-08-21 13:51:00,84.0,74.0,-100.00,NNW,346,8.0,11.0,72,0.00,,,1.61,516.000000,,2014-08-21 18:51:00,
2014-08-21 14:23:00,84.0,74.0,-100.00,NNW,346,8.0,11.0,72,0.00,,,1.61,516.000000,,2014-08-21 19:23:00,
2014-08-21 14:42:00,84.0,74.0,-100.00,NNW,346,8.0,11.0,72,0.00,,,1.61,516.000000,,2014-08-21 19:42:00,
2014-08-21 14:51:00,83.0,74.0,-100.00,North,355,8.0,13.0,74,0.00,,,1.61,524.000000,,2014-08-21 19:51:00,
2014-08-21 15:22:00,83.0,74.0,-100.00,North,355,8.0,13.0,74,0.00,,,1.61,524.000000,,2014-08-21 20:22:00,
2014-08-21 16:33:00,83.0,73.0,-100.00,North,3,7.0,11.0,73,0.00,,,1.61,538.000000,,2014-08-21 21:33:00,
2014-08-21 16:42:00,83.0,73.0,-100.00,North,3,7.0,11.0,73,0.00,,,1.61,538.000000,,2014-08-21 21:42:00,
2014-08-21 16:51:00,82.0,72.0,-100.00,North,4,7.0,10.0,73,0.00,,,1.61,376.000000,,2014-08-21 21:51:00,
2014-08-21 17:23:00,82.0,72.0,-100.00,North,4,7.0,10.0,73,0.00,,,1.61,376.000000,,2014-08-21 22:23:00,
2014-08-21 17:33:00,82.0,72.0,-100.00,North,4,7.0,10.0,73,0.00,,,1.61,376.000000,,2014-08-21 22:33:00,
2014-08-21 17:43:00,82.0,72.0,-100.00,North,4,7.0,10.0,73,0.00,,,1.61,376.000000,,2014-08-21 22:43:00,
2014-08-21 17:51:00,81.0,72.0,-100.00,North,8,6.0,11.0,75,0.00,,,1.61,219.000000,,2014-08-21 22:51:00,
2014-08-21 18:33:00,81.0,72.0,-100.00,North,8,6.0,11.0,75,0.00,,,1.61,219.000000,,2014-08-21 23:33:00,
2014-08-21 18:43:00,81.0,72.0,-100.00,North,8,6.0,11.0,75,0.00,,,1.61,219.000000,,2014-08-21 23:43:00,
2014-08-21 18:51:00,82.0,72.0,-100.00,NNW,344,5.0,9.0,72,0.00,,,1.61,278.000000,,2014-08-21 23:51:00,
2014-08-21 19:33:00,82.0,72.0,-100.00,NNW,344,5.0,9.0,72,0.00,,,1.61,278.000000,,2014-08-22 00:33:00,
2014-08-21 19:43:00,82.0,72.0,-100.00,NNW,344,5.0,9.0,72,0.00,,,1.61,278.000000,,2014-08-22 00:43:00,
2014-08-21 19:51:00,79.0,72.0,-100.00,NNW,346,3.0,8.0,79,0.00,,,1.61,117.000000,,2014-08-22 00:51:00,
2014-08-21 20:32:00,79.0,72.0,-100.00,NNW,346,3.0,8.0,79,0.00,,,1.61,117.000000,,2014-08-22 01:32:00,
2014-08-21 20:42:00,79.0,72.0,-100.00,NNW,346,3.0,8.0,79,0.00,,,1.61,117.000000,,2014-08-22 01:42:00,